Time;durP1;ratioP1;P1;durP2;ratioP2;P2;SDS_P1;SDS_P2;PMS_P1;PMS_P2;Temp;Humidity;BMP_temperature;BMP_pressure;BME280_temperature;BME280_humidity;BME280_pressure;Samples;Min_cycle;Max_cycle;Signal;HPM_P1;HPM_P2
2022/07/23 00:01:58;;;;;;;6.53;5.70;;;29.00;69.50;;;;;;1843014;77;21131;-73
2022/07/23 00:04:49;;;;;;;9.10;5.72;;;29.10;69.40;;;;;;1851000;77;21254;-73
2022/07/23 00:07:41;;;;;;;6.00;5.30;;;29.00;69.80;;;;;;1843641;77;21118;-73
2022/07/23 00:10:32;;;;;;;7.12;5.55;;;28.80;70.00;;;;;;1847157;77;21128;-73
2022/07/23 00:13:23;;;;;;;7.80;5.78;;;28.80;70.50;;;;;;1857346;77;21061;-72
2022/07/23 00:16:14;;;;;;;10.50;5.90;;;28.70;70.70;;;;;;1857996;77;21124;-72
2022/07/23 00:19:05;;;;;;;6.35;5.47;;;28.60;70.90;;;;;;1802203;79;21082;-72
2022/07/23 00:21:56;;;;;;;7.78;5.20;;;28.60;71.20;;;;;;1813439;78;21166;-72
2022/07/23 00:24:47;;;;;;;6.60;4.97;;;28.50;71.30;;;;;;1856164;77;21134;-72
2022/07/23 00:27:40;;;;;;;6.28;5.30;;;28.50;71.30;;;;;;1861940;77;21199;-72
2022/07/23 00:30:32;;;;;;;5.75;5.08;;;28.40;71.60;;;;;;1862717;77;21061;-72
2022/07/23 00:33:23;;;;;;;5.28;4.78;;;28.40;71.90;;;;;;1843982;77;21138;-72
2022/07/23 00:36:14;;;;;;;9.03;4.80;;;28.30;72.60;;;;;;1864024;77;21120;-72
2022/07/23 00:39:06;;;;;;;6.00;4.85;;;28.20;73.00;;;;;;1855407;77;21143;-72
2022/07/23 00:41:57;;;;;;;6.47;4.65;;;28.30;73.00;;;;;;1854585;77;21101;-72
2022/07/23 00:44:49;;;;;;;8.63;4.75;;;28.40;73.30;;;;;;1855753;77;21068;-72
2022/07/23 00:47:43;;;;;;;6.40;4.33;;;28.40;73.90;;;;;;1859550;77;21143;-72
2022/07/23 00:50:35;;;;;;;8.20;4.67;;;28.40;74.00;;;;;;1861717;76;21152;-72
2022/07/23 00:53:26;;;;;;;7.10;4.50;;;28.50;73.70;;;;;;1870602;76;21075;-72
2022/07/23 00:56:17;;;;;;;7.05;4.45;;;28.60;74.60;;;;;;1856689;77;21124;-72
2022/07/23 00:59:09;;;;;;;4.83;4.15;;;28.60;74.90;;;;;;1869845;76;21052;-72
2022/07/23 01:02:00;;;;;;;5.80;4.28;;;28.50;75.70;;;;;;1862920;77;21171;-72
2022/07/23 01:04:52;;;;;;;4.97;3.92;;;28.40;77.20;;;;;;1865989;77;21867;-72
2022/07/23 01:07:45;;;;;;;7.05;4.40;;;28.30;78.10;;;;;;1863371;77;21099;-72
2022/07/23 01:10:36;;;;;;;4.78;4.08;;;28.30;78.60;;;;;;1860899;77;21086;-72
2022/07/23 01:13:29;;;;;;;6.22;3.92;;;28.20;79.40;;;;;;1864251;77;21129;-72
2022/07/23 01:16:20;;;;;;;7.00;4.22;;;28.10;80.80;;;;;;1856987;77;21540;-72
2022/07/23 01:19:12;;;;;;;5.60;4.00;;;28.10;81.70;;;;;;1848313;77;21134;-71
2022/07/23 01:22:06;;;;;;;6.92;4.33;;;28.10;81.80;;;;;;1830735;78;21138;-71
2022/07/23 01:24:59;;;;;;;6.60;4.30;;;28.10;82.20;;;;;;1848901;77;21151;-70
2022/07/23 01:27:53;;;;;;;4.60;4.12;;;28.10;82.60;;;;;;1845621;77;21128;-70
2022/07/23 01:30:48;;;;;;;6.72;4.00;;;28.10;82.50;;;;;;1789758;79;21197;-70
2022/07/23 01:33:42;;;;;;;5.30;4.40;;;28.20;82.30;;;;;;1836063;77;21117;-70
2022/07/23 01:36:39;;;;;;;6.33;4.33;;;28.30;82.80;;;;;;1852123;77;21592;-70
2022/07/23 01:39:37;;;;;;;6.00;4.58;;;28.30;82.00;;;;;;1829887;77;21063;-70
2022/07/23 01:42:31;;;;;;;7.42;4.60;;;28.30;81.10;;;;;;1838776;77;21117;-70
2022/07/23 01:45:29;;;;;;;5.08;4.33;;;28.40;82.20;;;;;;1828700;77;21157;-70
2022/07/23 01:48:23;;;;;;;5.55;4.30;;;28.40;82.50;;;;;;1819282;79;21187;-70
2022/07/23 01:51:27;;;;;;;7.22;4.60;;;28.30;83.40;;;;;;1794287;78;21077;-70
2022/07/23 01:54:35;;;;;;;4.60;3.98;;;28.30;84.20;;;;;;1848063;77;21212;-70
2022/07/23 01:57:29;;;;;;;5.20;4.12;;;28.20;85.00;;;;;;1851931;77;21069;-70
2022/07/23 02:00:24;;;;;;;4.72;4.17;;;28.10;85.50;;;;;;1834199;77;21077;-72
2022/07/23 02:03:18;;;;;;;6.20;4.35;;;28.00;85.80;;;;;;1797696;78;21099;-70
2022/07/23 02:06:14;;;;;;;5.25;4.40;;;28.00;86.10;;;;;;1799999;79;21238;-70
2022/07/23 02:09:08;;;;;;;5.08;4.65;;;28.00;86.20;;;;;;1828237;77;21118;-70
2022/07/23 02:12:04;;;;;;;8.33;4.90;;;28.00;85.30;;;;;;1831561;77;21689;-70
2022/07/23 02:14:57;;;;;;;4.85;4.35;;;28.00;85.50;;;;;;1842675;77;21097;-70
2022/07/23 02:17:52;;;;;;;6.35;4.58;;;28.00;86.20;;;;;;1792322;79;21192;-70
2022/07/23 02:20:46;;;;;;;8.75;4.22;;;28.00;86.70;;;;;;1836294;77;21107;-70
2022/07/23 02:23:39;;;;;;;6.40;4.25;;;28.00;87.80;;;;;;1838696;77;21085;-70
2022/07/23 02:26:35;;;;;;;4.75;4.25;;;27.90;88.40;;;;;;1851950;77;21588;-70
2022/07/23 02:29:36;;;;;;;5.90;4.60;;;27.80;89.30;;;;;;1868310;77;21109;-70
2022/07/23 02:32:31;;;;;;;6.90;4.65;;;27.80;90.10;;;;;;1837826;77;21323;-70
2022/07/23 02:35:27;;;;;;;5.80;4.78;;;27.70;91.70;;;;;;1865909;77;21569;-70
2022/07/23 02:38:22;;;;;;;5.47;4.60;;;27.50;92.70;;;;;;1849006;77;21105;-71
2022/07/23 02:41:17;;;;;;;6.97;4.75;;;27.40;94.20;;;;;;1865350;77;21138;-71
2022/07/23 02:44:10;;;;;;;6.80;4.72;;;27.20;95.50;;;;;;1868573;77;21535;-71
2022/07/23 02:47:06;;;;;;;6.33;4.55;;;27.20;96.90;;;;;;1865784;77;21156;-71
2022/07/23 02:50:00;;;;;;;6.47;4.62;;;27.10;98.70;;;;;;1823841;78;21135;-71
2022/07/23 02:52:54;;;;;;;4.92;4.37;;;27.00;99.90;;;;;;1856594;76;21157;-71
2022/07/23 02:55:48;;;;;;;5.22;4.62;;;27.10;99.90;;;;;;1845016;76;21084;-72
2022/07/23 02:58:43;;;;;;;5.28;4.75;;;27.30;99.90;;;;;;1804694;78;21112;-71
2022/07/23 03:01:39;;;;;;;5.70;4.65;;;27.30;99.90;;;;;;1857981;77;21073;-71
2022/07/23 03:04:33;;;;;;;5.25;4.75;;;27.30;99.90;;;;;;1808751;78;21159;-71
2022/07/23 03:07:24;;;;;;;5.50;4.15;;;27.50;99.90;;;;;;1861304;77;21218;-71
2022/07/23 03:10:15;;;;;;;7.25;4.50;;;27.70;98.90;;;;;;1826933;78;21136;-71
2022/07/23 03:13:06;;;;;;;7.80;4.90;;;27.90;97.70;;;;;;1824983;78;21081;-72
2022/07/23 03:15:58;;;;;;;7.00;4.72;;;28.00;97.50;;;;;;1867304;77;21107;-72
2022/07/23 03:18:49;;;;;;;5.65;4.62;;;28.00;97.70;;;;;;1850134;77;21085;-72
2022/07/23 03:21:40;;;;;;;6.62;4.70;;;28.00;97.60;;;;;;1866841;77;21567;-71
2022/07/23 03:27:42;;;;;;;6.25;5.25;;;28.20;96.10;;;;;;1787482;79;21525;-71
2022/07/23 03:30:34;;;;;;;7.30;4.97;;;28.20;96.40;;;;;;1792435;79;21228;-70
2022/07/23 03:33:25;;;;;;;5.97;5.00;;;28.20;96.20;;;;;;1788073;79;21114;-71
2022/07/23 03:36:16;;;;;;;7.03;5.17;;;28.20;95.90;;;;;;1770858;81;21138;-71
2022/07/23 03:39:09;;;;;;;7.03;5.12;;;28.30;95.80;;;;;;1853441;77;21077;-71
2022/07/23 03:42:02;;;;;;;6.80;4.83;;;28.10;97.50;;;;;;1838951;78;21121;-71
2022/07/23 03:44:53;;;;;;;7.17;5.12;;;27.80;99.50;;;;;;1824076;78;21106;-71
2022/07/23 03:47:44;;;;;;;6.35;4.87;;;27.40;99.90;;;;;;1841475;78;21117;-70
2022/07/23 03:50:37;;;;;;;8.45;4.42;;;27.30;99.90;;;;;;1839234;78;21157;-70
2022/07/23 03:53:28;;;;;;;8.28;5.17;;;27.20;99.90;;;;;;1847538;76;21669;-71
2022/07/23 03:56:20;;;;;;;7.83;5.00;;;27.10;99.90;;;;;;1862623;76;21596;-71
2022/07/23 03:59:11;;;;;;;6.75;4.95;;;27.10;99.90;;;;;;1834417;76;21549;-71
2022/07/23 04:02:02;;;;;;;6.67;5.15;;;27.10;99.90;;;;;;1844040;77;21062;-70
2022/07/23 04:04:54;;;;;;;6.33;4.83;;;27.10;99.90;;;;;;1841011;78;21121;-71
2022/07/23 04:07:45;;;;;;;5.85;4.75;;;27.20;99.90;;;;;;1840562;78;21125;-70
2022/07/23 04:10:36;;;;;;;6.95;4.75;;;27.30;99.90;;;;;;1839885;78;21151;-70
2022/07/23 04:13:29;;;;;;;6.20;5.08;;;27.40;99.90;;;;;;1834513;78;21070;-71
2022/07/23 04:16:20;;;;;;;5.33;4.80;;;27.50;99.90;;;;;;1841291;78;21074;-71
2022/07/23 04:19:12;;;;;;;7.03;5.47;;;27.50;99.90;;;;;;1852194;77;21070;-71
2022/07/23 04:22:05;;;;;;;6.78;5.50;;;27.50;99.90;;;;;;1833085;77;21522;-71
2022/07/23 04:24:56;;;;;;;5.20;4.65;;;27.50;99.90;;;;;;1853941;76;21105;-71
2022/07/23 04:27:47;;;;;;;6.58;5.20;;;27.40;99.90;;;;;;1851052;76;21111;-71
2022/07/23 04:30:38;;;;;;;6.20;5.12;;;27.40;99.90;;;;;;1837529;77;21120;-71
2022/07/23 04:33:31;;;;;;;6.25;5.10;;;27.50;99.90;;;;;;1827303;77;21081;-72
2022/07/23 04:36:24;;;;;;;5.97;4.95;;;27.10;99.90;;;;;;1834346;77;21186;-71
2022/07/23 04:39:16;;;;;;;7.17;5.75;;;26.80;99.90;;;;;;1851724;77;21472;-72
2022/07/23 04:42:07;;;;;;;6.83;5.90;;;26.80;99.90;;;;;;1845930;77;21069;-71
2022/07/23 04:44:58;;;;;;;8.18;5.80;;;26.60;99.90;;;;;;1847680;77;21083;-71
2022/07/23 04:47:50;;;;;;;8.05;5.15;;;26.70;99.90;;;;;;1836687;77;21686;-71
2022/07/23 04:50:42;;;;;;;10.00;5.72;;;26.50;99.90;;;;;;1841616;77;21183;-71
2022/07/23 04:53:44;;;;;;;7.10;5.55;;;26.40;99.90;;;;;;1856028;77;21103;-72
2022/07/23 04:56:35;;;;;;;10.95;5.65;;;26.30;99.90;;;;;;1855387;77;21206;-71
2022/07/23 04:59:28;;;;;;;7.92;5.90;;;26.20;99.90;;;;;;1835537;77;21179;-73
2022/07/23 05:02:21;;;;;;;6.42;5.83;;;25.90;99.90;;;;;;1833857;77;21089;-72
2022/07/23 05:05:13;;;;;;;6.10;5.60;;;25.90;99.90;;;;;;1834281;77;21666;-71
2022/07/23 05:08:06;;;;;;;5.70;5.17;;;25.90;99.90;;;;;;1836865;77;21120;-71
2022/07/23 05:10:59;;;;;;;6.10;5.53;;;25.90;99.90;;;;;;1837634;77;21074;-71
2022/07/23 05:13:51;;;;;;;9.50;5.85;;;25.90;99.90;;;;;;1834452;77;21183;-71
2022/07/23 05:16:43;;;;;;;6.33;5.72;;;25.90;99.90;;;;;;1834474;77;21140;-71
2022/07/23 05:19:36;;;;;;;7.20;5.95;;;25.80;99.90;;;;;;1840077;77;21212;-71
2022/07/23 05:22:28;;;;;;;7.58;6.25;;;25.90;99.90;;;;;;1839643;77;21171;-71
2022/07/23 05:25:19;;;;;;;7.20;6.15;;;25.80;99.90;;;;;;1837334;76;21109;-71
2022/07/23 05:28:10;;;;;;;8.28;5.65;;;25.70;99.90;;;;;;1855627;77;21114;-71
2022/07/23 05:31:03;;;;;;;6.72;5.92;;;25.60;99.90;;;;;;1850276;77;21069;-71
2022/07/23 05:33:55;;;;;;;7.00;6.20;;;25.40;99.90;;;;;;1859682;77;21149;-71
2022/07/23 05:36:48;;;;;;;13.50;6.97;;;25.20;99.90;;;;;;1860640;77;21116;-71
2022/07/23 05:39:40;;;;;;;8.38;6.67;;;25.10;99.90;;;;;;1861205;77;21080;-72
2022/07/23 05:42:31;;;;;;;10.80;7.05;;;25.00;99.90;;;;;;1858851;77;21065;-71
2022/07/23 05:45:22;;;;;;;7.42;6.70;;;24.90;99.90;;;;;;1859549;77;21097;-71
2022/07/23 05:48:15;;;;;;;8.35;6.58;;;24.90;99.90;;;;;;1840336;77;21148;-71
2022/07/23 05:51:09;;;;;;;7.37;6.67;;;25.00;99.90;;;;;;1858926;77;21078;-71
2022/07/23 05:54:00;;;;;;;7.75;6.62;;;24.80;99.90;;;;;;1860307;76;21238;-71
2022/07/23 05:56:53;;;;;;;11.00;6.67;;;24.60;99.90;;;;;;1858366;76;21068;-71
2022/07/23 05:59:44;;;;;;;9.50;6.75;;;24.50;99.90;;;;;;1862661;77;21081;-71
2022/07/23 06:02:36;;;;;;;8.68;7.08;;;24.30;99.90;;;;;;1853461;77;21584;-71
2022/07/23 06:05:28;;;;;;;8.18;7.30;;;24.20;99.90;;;;;;1861005;77;21135;-71
2022/07/23 06:08:20;;;;;;;8.45;6.90;;;24.10;99.90;;;;;;1860171;77;21164;-71
2022/07/23 06:11:11;;;;;;;7.62;6.70;;;24.00;99.90;;;;;;1860733;77;21170;-71
2022/07/23 06:14:03;;;;;;;7.60;6.47;;;24.00;99.90;;;;;;1841358;77;21065;-71
2022/07/23 06:16:56;;;;;;;8.83;6.85;;;24.10;99.90;;;;;;1858743;77;21132;-71
2022/07/23 06:19:48;;;;;;;9.08;7.47;;;24.00;99.90;;;;;;1858898;77;21159;-71
2022/07/23 06:25:21;;;;;;;9.68;6.97;;;23.70;99.90;;;;;;1944314;72;22192;-71
2022/07/23 06:28:12;;;;;;;9.48;7.80;;;23.50;99.90;;;;;;1911906;75;21557;-70
2022/07/23 06:31:04;;;;;;;13.35;7.97;;;23.40;99.90;;;;;;1907415;75;21071;-71
2022/07/23 06:33:56;;;;;;;10.30;8.13;;;23.20;99.90;;;;;;1886792;75;21124;-72
2022/07/23 06:36:47;;;;;;;11.50;7.83;;;23.10;99.90;;;;;;1899134;75;21051;-69
2022/07/23 06:39:38;;;;;;;8.93;7.83;;;23.00;99.90;;;;;;1912335;75;21482;-70
2022/07/23 06:42:29;;;;;;;7.80;7.10;;;23.00;99.90;;;;;;1895387;75;21130;-70
2022/07/23 06:45:21;;;;;;;9.73;7.50;;;23.00;99.90;;;;;;1887340;75;21087;-71
2022/07/23 06:48:13;;;;;;;7.62;6.92;;;23.10;99.90;;;;;;1896546;75;21700;-71
2022/07/23 06:51:05;;;;;;;8.73;7.87;;;23.20;99.90;;;;;;1905497;75;21120;-70
2022/07/23 06:53:56;;;;;;;7.70;6.92;;;23.30;99.90;;;;;;1896905;73;21806;-72
2022/07/23 06:56:49;;;;;;;7.35;6.75;;;23.40;99.90;;;;;;1891836;73;21072;-73
2022/07/23 06:59:40;;;;;;;8.70;7.33;;;23.50;99.90;;;;;;1913016;75;21113;-71
2022/07/23 07:02:32;;;;;;;7.67;6.90;;;23.70;99.90;;;;;;1895687;75;21345;-71
2022/07/23 07:05:27;;;;;;;9.35;7.22;;;23.90;99.90;;;;;;1895220;75;21100;-71
2022/07/23 07:08:16;;;;;;;8.20;7.40;;;23.90;99.90;;;;;;1895591;75;21133;-71
2022/07/23 07:11:08;;;;;;;7.17;6.50;;;24.00;99.90;;;;;;1897682;75;21063;-71
2022/07/23 07:14:00;;;;;;;7.78;7.08;;;24.10;99.90;;;;;;1896505;75;21177;-71
2022/07/23 07:16:51;;;;;;;7.72;6.78;;;24.20;99.90;;;;;;1893014;75;21145;-71
2022/07/23 07:19:42;;;;;;;7.30;6.60;;;24.30;99.90;;;;;;1889408;75;21358;-71
2022/07/23 07:22:33;;;;;;;6.87;6.22;;;24.40;99.90;;;;;;1898731;75;21184;-71
2022/07/23 07:25:24;;;;;;;8.50;7.40;;;24.50;99.90;;;;;;1902749;74;21135;-71
2022/07/23 07:28:15;;;;;;;8.00;7.03;;;24.70;99.90;;;;;;1883550;75;21131;-71
2022/07/23 07:31:07;;;;;;;8.23;6.62;;;24.80;99.90;;;;;;1881197;75;21122;-84
2022/07/23 07:33:59;;;;;;;7.58;6.87;;;24.80;99.90;;;;;;1892048;75;21099;-84
2022/07/23 07:36:50;;;;;;;7.25;6.55;;;24.80;99.90;;;;;;1871989;75;21178;-84
2022/07/23 07:39:42;;;;;;;7.90;7.10;;;24.90;99.90;;;;;;1915468;75;21090;-85
2022/07/23 07:42:34;;;;;;;7.80;7.08;;;24.80;99.90;;;;;;1895367;75;21175;-85
2022/07/23 07:45:27;;;;;;;7.72;6.33;;;25.10;99.90;;;;;;1899824;75;21137;-84
2022/07/23 07:48:18;;;;;;;7.30;6.55;;;25.20;99.90;;;;;;1899948;75;21153;-85
2022/07/23 07:51:10;;;;;;;8.58;6.33;;;25.20;99.90;;;;;;1889578;75;21282;-85
2022/07/23 07:54:02;;;;;;;7.70;6.95;;;25.30;99.90;;;;;;1899009;74;21064;-85
2022/07/23 07:56:54;;;;;;;7.55;6.85;;;25.20;99.90;;;;;;1909783;74;21093;-85
2022/07/23 07:59:46;;;;;;;7.95;7.15;;;25.20;99.90;;;;;;1901599;75;21051;-84
2022/07/23 08:02:43;;;;;;;8.90;7.30;;;25.20;99.90;;;;;;1893833;75;21125;-84
2022/07/23 08:05:35;;;;;;;9.53;7.60;;;25.10;99.90;;;;;;1910740;73;21131;-85
2022/07/23 08:08:26;;;;;;;8.45;7.58;;;25.20;99.90;;;;;;1894612;75;21063;-85
2022/07/23 08:11:18;;;;;;;8.43;7.60;;;25.30;99.90;;;;;;1903449;75;21059;-85
2022/07/23 08:14:10;;;;;;;8.00;7.30;;;25.40;99.90;;;;;;1898017;75;21091;-86
2022/07/23 08:17:02;;;;;;;7.70;6.90;;;25.50;99.90;;;;;;1902613;75;21121;-86
2022/07/23 08:19:54;;;;;;;8.40;7.65;;;25.50;99.90;;;;;;1879611;75;21200;-86
2022/07/23 08:22:48;;;;;;;8.30;7.50;;;25.50;99.90;;;;;;1892513;75;21140;-86
2022/07/23 08:25:40;;;;;;;7.12;6.53;;;25.60;99.90;;;;;;1884426;75;21107;-86
2022/07/23 08:28:35;;;;;;;7.72;6.92;;;25.70;99.90;;;;;;1897206;75;21059;-87
2022/07/23 08:31:28;;;;;;;11.12;7.17;;;25.90;99.90;;;;;;1908696;75;21059;-86
2022/07/23 08:34:39;;;;;;;7.55;6.87;;;26.10;99.90;;;;;;1894906;75;21086;-86
2022/07/23 08:40:14;;;;;;;8.98;7.65;;;26.20;99.90;;;;;;1934576;72;22267;-86
2022/07/23 08:43:07;;;;;;;8.60;7.75;;;26.20;99.90;;;;;;1884694;76;21140;-85
2022/07/23 08:46:02;;;;;;;8.25;7.50;;;26.20;99.90;;;;;;1921131;74;21222;-87
2022/07/23 08:48:55;;;;;;;11.10;7.62;;;26.30;99.90;;;;;;1908705;74;21085;-86
2022/07/23 08:51:47;;;;;;;8.85;7.95;;;26.40;99.90;;;;;;1916514;74;21130;-86
2022/07/23 08:54:39;;;;;;;11.80;8.40;;;26.50;99.90;;;;;;1890423;74;21685;-86
2022/07/23 08:57:31;;;;;;;9.30;8.30;;;26.40;99.90;;;;;;1905107;74;21589;-86
2022/07/23 09:00:24;;;;;;;9.45;8.00;;;26.40;99.90;;;;;;1906255;75;21144;-86
2022/07/23 09:03:19;;;;;;;9.08;8.03;;;26.40;99.90;;;;;;1899454;74;21188;-85
2022/07/23 09:06:10;;;;;;;8.58;7.78;;;26.40;99.90;;;;;;1905678;74;21162;-85
2022/07/23 09:09:04;;;;;;;8.65;7.85;;;26.30;99.90;;;;;;1898373;74;21227;-86
2022/07/23 09:12:06;;;;;;;8.65;7.85;;;26.40;99.90;;;;;;1915037;74;21066;-84
2022/07/23 09:14:59;;;;;;;10.48;7.53;;;26.40;99.90;;;;;;1910658;74;21209;-85
2022/07/23 09:17:51;;;;;;;8.95;7.87;;;26.50;99.90;;;;;;1910053;74;21153;-85
2022/07/23 09:20:42;;;;;;;8.45;7.62;;;26.70;99.90;;;;;;1901398;75;21095;-86
2022/07/23 09:23:40;;;;;;;8.38;7.45;;;26.70;99.90;;;;;;1884836;76;21062;-84
2022/07/23 09:26:36;;;;;;;8.47;7.13;;;26.80;99.90;;;;;;1905823;75;21142;-84
2022/07/23 09:29:28;;;;;;;8.00;7.30;;;26.70;99.90;;;;;;1904343;74;21579;-85
2022/07/23 09:32:20;;;;;;;13.78;7.78;;;26.70;99.90;;;;;;1923818;74;21196;-85
2022/07/23 09:35:11;;;;;;;7.67;6.97;;;27.00;99.90;;;;;;1891254;74;21120;-86
2022/07/23 09:38:06;;;;;;;7.97;7.03;;;27.00;99.90;;;;;;1909909;74;21065;-85
2022/07/23 09:41:12;;;;;;;8.20;7.50;;;27.20;99.90;;;;;;1919693;74;21129;-85
2022/07/23 09:44:10;;;;;;;8.85;7.37;;;27.20;99.90;;;;;;1921418;74;21125;-86
2022/07/23 09:47:02;;;;;;;7.53;6.80;;;27.30;99.90;;;;;;1902327;75;21109;-86
2022/07/23 09:50:06;;;;;;;7.87;7.10;;;27.50;99.90;;;;;;1892865;75;21062;-86
2022/07/23 09:52:57;;;;;;;8.33;6.90;;;27.50;99.90;;;;;;1903958;75;21060;-82
2022/07/23 09:55:49;;;;;;;7.62;6.92;;;27.60;99.90;;;;;;1875621;74;21283;-82
2022/07/23 09:58:49;;;;;;;7.37;6.67;;;27.70;99.90;;;;;;1878823;74;21203;-82
2022/07/23 10:01:41;;;;;;;7.50;6.80;;;27.70;99.90;;;;;;1881747;75;21633;-82
2022/07/23 10:04:33;;;;;;;7.15;6.45;;;27.70;99.90;;;;;;1908108;74;21087;-82
2022/07/23 10:07:43;;;;;;;7.40;6.62;;;27.80;99.90;;;;;;1863911;76;21507;-82
2022/07/23 10:10:57;;;;;;;7.00;6.25;;;27.90;99.90;;;;;;1872077;77;21063;-82
2022/07/23 10:16:45;;;;;;;7.28;6.53;;;28.40;99.90;;;;;;2012897;71;22060;-83
2022/07/23 10:19:40;;;;;;;7.67;6.90;;;28.40;99.90;;;;;;1950567;72;21522;-82
2022/07/23 10:22:36;;;;;;;6.78;6.00;;;28.40;99.90;;;;;;1966117;72;21156;-82
2022/07/23 10:28:50;;;;;;;7.05;6.35;;;28.40;99.90;;;;;;1963115;72;22203;-82
2022/07/23 10:35:03;;;;;;;7.33;6.58;;;28.30;99.90;;;;;;1975985;72;22127;-82
2022/07/23 10:37:58;;;;;;;7.10;6.40;;;28.00;99.90;;;;;;1951443;73;21117;-83
2022/07/23 10:40:58;;;;;;;7.47;6.70;;;28.00;99.90;;;;;;1923590;73;21120;-82
2022/07/23 10:44:07;;;;;;;7.33;6.70;;;28.10;99.90;;;;;;1917627;75;21100;-82
2022/07/23 10:47:06;;;;;;;7.00;6.40;;;28.10;99.90;;;;;;1918553;73;21050;-82
2022/07/23 10:50:25;;;;;;;6.70;6.10;;;28.10;99.90;;;;;;1917467;73;21115;-82
2022/07/23 10:55:59;;;;;;;7.92;6.40;;;28.30;99.90;;;;;;1944396;72;22317;-82
2022/07/23 10:58:53;;;;;;;8.48;6.70;;;28.40;99.90;;;;;;1920505;73;21119;-82
2022/07/23 11:01:44;;;;;;;7.08;6.20;;;28.40;99.90;;;;;;1937712;73;21092;-82
2022/07/23 11:04:53;;;;;;;7.15;6.45;;;28.50;99.90;;;;;;1932359;73;21624;-82
2022/07/23 11:11:12;;;;;;;8.03;6.45;;;28.60;99.90;;;;;;1949918;72;23384;-82
2022/07/23 11:14:04;;;;;;;7.47;6.67;;;28.50;99.90;;;;;;1902115;75;21583;-82
2022/07/23 11:16:57;;;;;;;7.17;6.42;;;28.50;99.90;;;;;;1897101;75;21106;-83
2022/07/23 11:23:21;;;;;;;7.12;6.53;;;29.00;99.90;;;;;;1943536;72;22281;-91
2022/07/23 11:26:25;;;;;;;7.47;6.78;;;29.10;99.90;;;;;;1901160;75;21136;-93
2022/07/23 11:29:47;;;;;;;7.20;6.50;;;29.20;99.90;;;;;;1883280;75;21189;-92
2022/07/23 11:32:42;;;;;;;7.22;6.60;;;29.20;99.90;;;;;;1898729;75;21157;-90
2022/07/23 11:35:39;;;;;;;7.40;6.80;;;29.30;99.90;;;;;;1904966;75;21054;-87
2022/07/23 11:38:33;;;;;;;7.05;6.45;;;29.20;99.90;;;;;;1891749;75;21517;-84
2022/07/23 11:41:24;;;;;;;7.28;6.58;;;29.10;99.90;;;;;;1889674;75;21133;-83
2022/07/23 11:44:27;;;;;;;7.17;6.47;;;29.30;99.90;;;;;;1885734;75;21155;-83
2022/07/23 11:47:23;;;;;;;8.45;6.92;;;29.40;99.90;;;;;;1896114;75;21222;-83
2022/07/23 11:50:15;;;;;;;6.62;6.00;;;29.50;99.90;;;;;;1894525;75;21135;-83
2022/07/23 11:53:06;;;;;;;7.87;7.08;;;29.40;99.90;;;;;;1873121;76;21168;-84
2022/07/23 11:56:10;;;;;;;7.12;6.53;;;29.50;99.90;;;;;;1876609;75;21144;-84
2022/07/23 11:59:02;;;;;;;7.37;6.67;;;29.40;99.90;;;;;;1921267;73;21122;-83
2022/07/23 12:02:01;;;;;;;6.70;6.05;;;29.40;99.90;;;;;;1882955;73;21270;-84
2022/07/23 12:04:54;;;;;;;7.47;6.78;;;29.60;99.90;;;;;;1886206;75;21168;-84
2022/07/23 12:07:49;;;;;;;7.80;7.00;;;29.80;99.90;;;;;;1883432;75;21682;-85
2022/07/23 12:10:42;;;;;;;7.45;6.75;;;29.70;99.90;;;;;;1895949;75;21051;-85
2022/07/23 12:13:33;;;;;;;7.17;6.45;;;29.60;99.90;;;;;;1899553;75;21624;-85
2022/07/23 12:16:24;;;;;;;7.37;6.62;;;29.60;99.90;;;;;;1884409;75;21063;-86
2022/07/23 12:21:56;;;;;;;7.55;6.83;;;29.60;99.90;;;;;;1936661;72;22185;-84
2022/07/23 12:24:59;;;;;;;7.17;6.47;;;29.60;99.90;;;;;;1904877;75;21115;-84
2022/07/23 12:28:00;;;;;;;9.75;6.85;;;29.80;99.90;;;;;;1874673;75;21188;-84
2022/07/23 12:30:53;;;;;;;7.83;7.03;;;29.80;99.90;;;;;;1889998;75;21105;-85
2022/07/23 12:33:46;;;;;;;7.42;6.72;;;29.90;99.90;;;;;;1883720;75;21071;-84
2022/07/23 12:42:14;;;;;;;7.67;6.97;;;30.20;99.90;;;;;;1927788;72;22125;-84
2022/07/23 12:45:11;;;;;;;7.37;6.78;;;30.40;99.90;;;;;;1894347;75;21082;-85
2022/07/23 12:48:07;;;;;;;7.45;6.62;;;30.30;99.90;;;;;;1884928;75;21091;-88
2022/07/23 12:53:54;;;;;;;7.95;6.92;;;30.40;99.90;;;;;;1932774;72;22209;-85
2022/07/23 12:56:48;;;;;;;6.78;6.17;;;30.50;99.90;;;;;;1902276;75;21056;-84
2022/07/23 12:59:39;;;;;;;7.35;6.65;;;30.70;99.90;;;;;;1895440;73;21238;-85
2022/07/23 13:05:29;;;;;;;7.80;6.87;;;31.00;99.90;;;;;;1930345;72;22537;-85
2022/07/23 13:08:22;;;;;;;7.40;6.75;;;31.00;99.90;;;;;;1908089;75;21514;-85
2022/07/23 13:11:14;;;;;;;6.92;6.35;;;31.10;99.90;;;;;;1913879;75;21108;-86
2022/07/23 13:14:05;;;;;;;7.15;6.53;;;30.90;99.90;;;;;;1899854;75;21070;-85
2022/07/23 13:16:59;;;;;;;6.95;6.28;;;30.80;99.90;;;;;;1888197;75;21066;-85
2022/07/23 13:22:29;;;;;;;8.13;6.35;;;30.80;99.90;;;;;;1937247;72;22115;-86
2022/07/23 13:28:05;;;;;;;6.45;5.80;;;30.70;99.90;;;;;;1947818;72;22640;-85
2022/07/23 13:30:59;;;;;;;6.67;6.10;;;30.70;99.90;;;;;;1906929;75;21097;-85
2022/07/23 13:33:53;;;;;;;7.12;6.53;;;30.60;99.90;;;;;;1848732;77;21171;-85
2022/07/23 13:36:53;;;;;;;7.53;6.40;;;30.50;99.90;;;;;;1903261;75;21093;-84
2022/07/23 13:42:40;;;;;;;8.43;6.53;;;30.20;99.90;;;;;;1935687;72;22103;-84
2022/07/23 13:45:32;;;;;;;7.10;6.40;;;30.30;99.90;;;;;;1893956;75;21102;-84
2022/07/23 13:48:23;;;;;;;7.15;6.50;;;30.30;99.90;;;;;;1887711;75;21095;-84
2022/07/23 13:51:19;;;;;;;6.78;6.17;;;30.40;99.90;;;;;;1887302;75;21074;-85
2022/07/23 13:54:13;;;;;;;6.92;6.30;;;30.40;99.90;;;;;;1901503;75;21164;-85
2022/07/23 13:57:05;;;;;;;7.00;6.40;;;30.50;99.90;;;;;;1903373;75;21429;-85
2022/07/23 13:59:58;;;;;;;7.50;6.53;;;30.80;99.90;;;;;;1911782;73;21047;-84
2022/07/23 14:02:51;;;;;;;6.80;6.20;;;31.00;99.90;;;;;;1906278;75;21193;-84
2022/07/23 14:05:43;;;;;;;7.12;6.42;;;31.20;99.90;;;;;;1909708;73;21590;-84
2022/07/23 14:08:34;;;;;;;8.13;6.72;;;31.40;99.90;;;;;;1906793;75;21201;-84
2022/07/23 14:11:27;;;;;;;6.45;5.87;;;31.30;99.90;;;;;;1907408;75;21549;-85
2022/07/23 14:14:20;;;;;;;7.90;7.10;;;31.50;99.90;;;;;;1900742;75;21062;-84
2022/07/23 14:17:12;;;;;;;7.55;6.53;;;31.80;99.90;;;;;;1885197;75;21511;-84
2022/07/23 14:20:06;;;;;;;7.17;6.30;;;31.70;99.90;;;;;;1896632;75;21039;-84
2022/07/23 14:25:40;;;;;;;7.10;6.42;;;32.00;99.90;;;;;;1930635;72;22205;-85
2022/07/23 14:28:32;;;;;;;7.60;6.80;;;32.10;99.90;;;;;;1890184;75;21196;-84
2022/07/23 14:35:26;;;;;;;7.12;6.42;;;32.20;99.90;;;;;;1845278;74;21091;-85
2022/07/23 14:41:15;;;;;;;6.97;6.37;;;31.80;99.90;;;;;;1947991;72;22083;-86
2022/07/23 14:46:57;;;;;;;7.40;6.37;;;31.80;99.90;;;;;;1941821;72;22079;-84
2022/07/23 14:52:35;;;;;;;7.12;6.22;;;31.80;99.90;;;;;;1941387;72;22134;-84
2022/07/23 14:58:13;;;;;;;6.67;6.08;;;31.80;99.90;;;;;;1937801;72;22105;-84
2022/07/23 15:01:04;;;;;;;6.70;6.05;;;31.70;99.90;;;;;;1915144;74;21157;-84
2022/07/23 15:03:56;;;;;;;7.33;6.55;;;31.90;99.90;;;;;;1913614;74;21515;-84
2022/07/23 15:09:32;;;;;;;6.55;5.95;;;31.60;99.90;;;;;;1927881;72;22186;-83
2022/07/23 15:12:38;;;;;;;6.70;6.10;;;31.70;99.90;;;;;;1882149;73;21833;-84
2022/07/23 15:15:30;;;;;;;7.17;6.45;;;31.50;99.90;;;;;;1885561;75;21060;-85
2022/07/23 15:18:31;;;;;;;6.40;5.80;;;31.20;99.90;;;;;;1880665;75;21540;-84
2022/07/23 15:21:23;;;;;;;7.25;6.55;;;31.20;99.90;;;;;;1884247;75;21036;-84
2022/07/23 15:26:55;;;;;;;7.12;6.40;;;31.50;99.90;;;;;;1930713;72;22272;-84
2022/07/23 15:32:31;;;;;;;6.58;5.80;;;32.20;99.90;;;;;;1963048;72;22058;-83
2022/07/23 15:35:23;;;;;;;6.40;5.90;;;32.50;99.90;;;;;;1929877;73;21113;-83
2022/07/23 15:38:16;;;;;;;6.92;6.33;;;32.80;99.90;;;;;;1923406;73;21162;-85
2022/07/23 15:41:09;;;;;;;6.78;6.05;;;32.80;99.90;;;;;;1921095;73;21073;-85
2022/07/23 15:49:53;;;;;;;6.90;6.25;;;32.00;99.90;;;;;;2018302;69;22181;-84
2022/07/23 15:52:46;;;;;;;6.70;6.05;;;31.80;99.90;;;;;;1977902;72;21059;-82
2022/07/23 15:55:55;;;;;;;6.70;6.08;;;31.50;99.90;;;;;;1976237;72;21031;-83
2022/07/23 15:58:48;;;;;;;6.85;6.20;;;31.80;99.90;;;;;;1977857;70;21198;-83
2022/07/23 16:01:40;;;;;;;7.05;6.10;;;32.60;99.90;;;;;;1979752;70;21063;-85
2022/07/23 16:04:33;;;;;;;6.60;5.92;;;32.90;99.90;;;;;;1987094;72;21085;-94
2022/07/23 16:07:53;;;;;;;6.30;5.80;;;32.80;99.90;;;;;;1964175;72;21107;-93
2022/07/23 16:10:49;;;;;;;6.75;6.15;;;33.10;99.90;;;;;;1970550;72;21035;-81
2022/07/23 16:13:41;;;;;;;6.35;5.85;;;33.10;99.90;;;;;;1988159;72;21047;-92
2022/07/23 16:16:33;;;;;;;7.22;6.50;;;33.50;99.20;;;;;;1960023;72;21058;-92
2022/07/23 16:19:24;;;;;;;6.45;5.85;;;33.70;98.40;;;;;;1980305;72;21023;-92
2022/07/23 16:22:17;;;;;;;6.50;6.00;;;33.60;98.30;;;;;;1959543;72;21062;-89
2022/07/23 16:25:13;;;;;;;6.45;5.85;;;33.70;98.10;;;;;;1974821;70;21088;-91